Paraiso do Tocantins, Brazil
Current Conditions -  °F | °C
As of 12:00 PM on Tuesday 21 Oct 2014 (Local Time) from SBPJ Reporting Station
Scattered Clouds Scattered Clouds  
Wind Chill: 90°   Ceiling: Unl
Heat Index: 93°   Visibility: 6mi
Dew Point: 68°   Wind: 3mph
Humidity: 49%   Direction: 210°SSW
Pressure: 29.85"   Gusts: NA
Location:  10.18°S, 48.87°W
Report Text: SBPJ 211500Z 21003KT 9999 FEW030 SCT100 32/20 Q1011
Loading
Personal Weather Stations






























Interactive Weather Map
Tropical Storm Tracking
New forecast layout! Learn more

10-Day Weather Forecast

Advertisements
Track Severe Weather on mobile